Time;durP1;ratioP1;P1;durP2;ratioP2;P2;SDS_P1;SDS_P2;PMS_P1;PMS_P2;Temp;Humidity;BMP_temperature;BMP_pressure;BME280_temperature;BME280_humidity;BME280_pressure;Samples;Min_cycle;Max_cycle;Signal;HPM_P1;HPM_P2
2022/09/17 00:01:52;;;;;;;5.75;1.60;;;;;;;10.96;100.00;96315.88;5034067;28;20049;-68
2022/09/17 00:04:17;;;;;;;3.47;1.58;;;;;;;10.98;100.00;96310.78;5007431;28;20124;-68
2022/09/17 00:06:43;;;;;;;2.80;1.70;;;;;;;10.98;100.00;96314.31;5024718;28;20072;-67
2022/09/17 00:09:09;;;;;;;2.65;1.50;;;;;;;10.94;100.00;96313.50;5008215;28;20037;-68
2022/09/17 00:11:38;;;;;;;3.38;1.50;;;;;;;10.97;100.00;96318.22;5028532;28;20073;-69
2022/09/17 00:14:06;;;;;;;3.53;1.70;;;;;;;10.88;100.00;96315.03;5027243;28;20454;-68
2022/09/17 00:16:38;;;;;;;6.07;1.85;;;;;;;10.76;100.00;96318.03;5023789;28;20128;-68
2022/09/17 00:19:05;;;;;;;5.38;1.60;;;;;;;10.80;100.00;96314.16;5026630;28;20038;-68
2022/09/17 00:21:31;;;;;;;6.95;1.50;;;;;;;10.84;100.00;96309.50;5032804;28;20037;-67
2022/09/17 00:23:59;;;;;;;4.55;1.83;;;;;;;10.78;100.00;96308.25;5041962;28;20071;-68
2022/09/17 00:26:25;;;;;;;5.15;1.98;;;;;;;10.54;100.00;96309.59;5030276;28;20232;-67
2022/09/17 00:28:52;;;;;;;4.47;2.00;;;;;;;10.42;100.00;96298.91;5005805;28;20100;-68
2022/09/17 00:31:18;;;;;;;5.18;1.80;;;;;;;10.41;100.00;96289.16;5016858;28;20049;-68
2022/09/17 00:33:44;;;;;;;6.95;1.88;;;;;;;10.31;100.00;96304.28;5052800;28;20049;-68
2022/09/17 00:36:10;;;;;;;6.47;1.83;;;;;;;10.33;100.00;96308.22;5027395;28;20045;-69
2022/09/17 00:38:36;;;;;;;3.35;1.90;;;;;;;10.39;100.00;96316.09;5021304;28;20045;-69
2022/09/17 00:41:02;;;;;;;6.30;1.70;;;;;;;10.33;100.00;96315.63;5023360;28;20044;-67
2022/09/17 00:43:42;;;;;;;3.45;1.70;;;;;;;10.31;100.00;96315.22;5017570;28;20405;-67
2022/09/17 00:46:28;;;;;;;7.03;1.92;;;;;;;10.34;100.00;96317.22;5016991;28;20137;-68
2022/09/17 00:48:55;;;;;;;4.95;1.77;;;;;;;10.49;100.00;96313.47;5022951;28;20041;-69
2022/09/17 00:51:29;;;;;;;7.57;1.90;;;;;;;10.68;100.00;96311.72;5014609;28;20053;-69
2022/09/17 00:53:55;;;;;;;4.40;1.58;;;;;;;10.77;100.00;96320.41;5017310;28;20033;-68
2022/09/17 00:56:25;;;;;;;2.75;1.92;;;;;;;10.76;100.00;96318.03;5025969;28;20394;-68
2022/09/17 00:58:52;;;;;;;3.97;1.33;;;;;;;10.74;100.00;96326.63;5034884;28;20041;-68
2022/09/17 01:01:18;;;;;;;8.35;1.33;;;;;;;10.76;100.00;96320.78;5047918;28;20056;-68
2022/09/17 01:03:43;;;;;;;5.00;1.58;;;;;;;10.76;100.00;96321.56;5042944;28;20063;-68
2022/09/17 01:06:32;;;;;;;4.97;1.33;;;;;;;10.48;100.00;96316.59;5031003;28;20064;-68
2022/09/17 01:09:10;;;;;;;6.05;1.25;;;;;;;10.59;100.00;96325.72;5015631;28;20033;-68
2022/09/17 01:11:53;;;;;;;5.15;1.40;;;;;;;10.57;100.00;96330.78;5021876;28;20038;-69
2022/09/17 01:14:43;;;;;;;2.65;1.40;;;;;;;10.62;100.00;96318.69;5016522;28;20498;-69
2022/09/17 01:17:35;;;;;;;6.03;1.55;;;;;;;10.52;100.00;96322.91;5005809;28;20045;-69
2022/09/17 01:20:28;;;;;;;4.70;1.67;;;;;;;10.52;100.00;96323.66;4999552;28;20037;-68
2022/09/17 01:23:32;;;;;;;3.83;1.30;;;;;;;10.47;100.00;96329.47;5011285;28;20053;-67
2022/09/17 01:26:39;;;;;;;2.88;1.13;;;;;;;10.47;100.00;96328.69;4965139;28;20067;-67
2022/09/17 01:29:39;;;;;;;3.28;1.10;;;;;;;10.24;100.00;96335.06;5016521;28;20076;-68
2022/09/17 01:32:11;;;;;;;1.95;1.23;;;;;;;10.28;100.00;96337.84;4998796;28;20037;-68
2022/09/17 01:34:49;;;;;;;2.85;1.05;;;;;;;10.18;100.00;96328.34;5019981;28;20052;-68
2022/09/17 01:37:18;;;;;;;3.08;1.33;;;;;;;10.26;100.00;96324.53;5020020;28;20041;-69
2022/09/17 01:40:25;;;;;;;2.13;1.05;;;;;;;10.36;100.00;96328.59;5030066;28;20051;-68
2022/09/17 01:43:05;;;;;;;4.38;1.17;;;;;;;10.39;100.00;96327.84;4944860;28;20038;-68
2022/09/17 01:45:39;;;;;;;2.15;1.30;;;;;;;10.41;100.00;96330.22;4983488;28;20037;-68
2022/09/17 01:48:15;;;;;;;3.40;1.27;;;;;;;10.24;100.00;96342.47;5014015;28;20060;-68
2022/09/17 01:50:54;;;;;;;1.77;1.00;;;;;;;10.22;100.00;96336.59;5021942;28;20044;-68
2022/09/17 01:53:25;;;;;;;2.13;1.13;;;;;;;10.29;100.00;96339.41;5013775;28;20049;-68
2022/09/17 01:55:54;;;;;;;8.77;1.90;;;;;;;10.25;100.00;96338.59;5002236;28;20359;-68
2022/09/17 01:58:30;;;;;;;4.28;1.58;;;;;;;10.28;100.00;96338.66;5016178;28;20137;-70
2022/09/17 02:01:01;;;;;;;3.95;1.30;;;;;;;10.37;100.00;96332.91;5021442;28;20040;-69
2022/09/17 02:03:33;;;;;;;4.90;1.15;;;;;;;10.41;100.00;96338.44;4999118;28;20045;-69
2022/09/17 02:06:04;;;;;;;3.63;1.15;;;;;;;10.33;100.00;96335.59;5021332;28;20072;-69
2022/09/17 02:08:42;;;;;;;2.67;1.13;;;;;;;10.30;100.00;96341.78;5002660;28;20041;-68
2022/09/17 02:11:11;;;;;;;3.60;1.23;;;;;;;10.21;100.00;96335.00;5004379;28;20077;-68
2022/09/17 02:13:46;;;;;;;1.52;1.10;;;;;;;10.08;100.00;96337.22;5016501;28;20042;-67
2022/09/17 02:16:20;;;;;;;3.05;1.45;;;;;;;9.99;100.00;96337.47;5028202;28;20064;-68
2022/09/17 02:18:54;;;;;;;3.92;1.17;;;;;;;10.10;100.00;96341.16;5028394;28;20617;-68
2022/09/17 02:21:24;;;;;;;3.80;0.95;;;;;;;10.13;100.00;96340.41;5015738;28;20058;-68
2022/09/17 02:24:00;;;;;;;1.67;1.00;;;;;;;10.07;100.00;96339.16;5021753;28;20037;-68
2022/09/17 02:26:26;;;;;;;5.20;1.20;;;;;;;10.08;100.00;96342.69;4997123;28;20050;-67
2022/09/17 02:29:06;;;;;;;2.25;1.00;;;;;;;9.95;100.00;96331.19;5021529;28;20503;-69
2022/09/17 02:31:32;;;;;;;;;;;;;;;9.96;100.00;96340.97;5003437;28;20046;-69
2022/09/17 02:34:00;;;;;;;3.65;1.25;;;;;;;9.98;100.00;96344.13;5020149;28;19917;-68
2022/09/17 02:36:27;;;;;;;5.10;1.30;;;;;;;9.93;100.00;96339.75;4979328;28;20672;-69
2022/09/17 02:39:02;;;;;;;2.38;1.00;;;;;;;9.99;100.00;96342.19;5003300;28;20041;-68
2022/09/17 02:41:39;;;;;;;3.13;1.10;;;;;;;9.71;100.00;96346.13;5015808;28;20073;-69
2022/09/17 02:44:23;;;;;;;3.00;1.00;;;;;;;9.83;100.00;96350.56;5029185;28;20549;-68
2022/09/17 02:46:57;;;;;;;3.85;1.13;;;;;;;9.87;100.00;96343.22;5022581;28;20064;-67
2022/09/17 02:49:48;;;;;;;2.47;0.90;;;;;;;10.01;100.00;96345.31;5024774;28;20617;-68
2022/09/17 02:52:23;;;;;;;4.38;1.02;;;;;;;9.90;100.00;96343.25;4995346;28;20045;-68
2022/09/17 02:55:38;;;;;;;8.38;1.02;;;;;;;9.99;100.00;96347.66;5018658;28;20080;-68
2022/09/17 02:58:15;;;;;;;4.78;1.10;;;;;;;9.94;100.00;96346.81;4975540;28;20463;-68
2022/09/17 03:00:42;;;;;;;3.65;1.05;;;;;;;9.85;100.00;96356.44;5002870;28;20030;-68
2022/09/17 03:03:12;;;;;;;2.00;0.85;;;;;;;9.90;100.00;96356.94;4996710;28;20157;-67
2022/09/17 03:05:41;;;;;;;5.93;1.08;;;;;;;9.97;100.00;96355.44;4999578;28;20311;-68
2022/09/17 03:08:11;;;;;;;3.27;0.93;;;;;;;9.96;100.00;96354.66;5003353;28;20125;-67
2022/09/17 03:10:36;;;;;;;;;;;;;;;9.97;100.00;96355.44;5013884;28;20407;-68
2022/09/17 03:13:02;;;;;;;2.35;1.10;;;;;;;9.91;100.00;96354.97;5029841;28;19913;-68
2022/09/17 03:15:28;;;;;;;1.42;0.95;;;;;;;9.98;100.00;96344.13;5006295;28;20048;-67
2022/09/17 03:17:54;;;;;;;2.20;0.90;;;;;;;9.87;100.00;96343.22;5026642;28;20046;-68
2022/09/17 03:20:19;;;;;;;1.55;0.77;;;;;;;9.80;100.00;96352.09;5015381;28;20383;-68
2022/09/17 03:22:46;;;;;;;7.38;0.90;;;;;;;9.86;100.00;96344.34;5019619;28;20104;-68
2022/09/17 03:25:11;;;;;;;3.00;0.82;;;;;;;9.76;100.00;96343.84;5020110;28;20541;-66
2022/09/17 03:27:37;;;;;;;3.65;0.80;;;;;;;9.71;100.00;96346.13;5018173;28;20379;-66
2022/09/17 03:30:05;;;;;;;3.58;0.80;;;;;;;9.70;100.00;96350.78;4999261;28;20037;-68
2022/09/17 03:32:31;;;;;;;3.33;1.00;;;;;;;9.86;100.00;96347.09;5022785;28;20049;-68
2022/09/17 03:34:57;;;;;;;2.40;0.70;;;;;;;9.83;100.00;96353.28;5024591;28;20144;-68
2022/09/17 03:37:22;;;;;;;1.85;0.70;;;;;;;9.77;100.00;96352.84;5018048;28;21122;-68
2022/09/17 03:39:48;;;;;;;2.55;0.70;;;;;;;9.65;100.00;96353.84;5016842;28;20041;-68
2022/09/17 03:42:14;;;;;;;3.05;0.77;;;;;;;9.63;100.00;96350.69;5039104;28;20041;-68
2022/09/17 03:44:39;;;;;;;5.55;1.00;;;;;;;9.63;100.00;96352.63;5044104;28;20045;-69
2022/09/17 03:47:05;;;;;;;6.68;0.80;;;;;;;9.62;100.00;96349.13;5039044;28;20073;-67
2022/09/17 03:49:30;;;;;;;5.05;0.80;;;;;;;9.56;100.00;96354.13;5042271;28;20045;-67
2022/09/17 03:51:55;;;;;;;2.55;0.88;;;;;;;9.66;100.00;96358.16;5038360;28;20045;-67
2022/09/17 03:54:21;;;;;;;2.90;0.80;;;;;;;9.62;100.00;96364.75;5034390;28;20397;-66
2022/09/17 03:56:47;;;;;;;2.30;0.88;;;;;;;9.64;100.00;96371.41;5043617;28;20048;-66
2022/09/17 03:59:12;;;;;;;1.70;0.77;;;;;;;9.66;100.00;96362.84;5038528;28;20049;-68
2022/09/17 04:01:38;;;;;;;1.95;0.98;;;;;;;9.64;100.00;96365.16;5030458;28;20098;-68
2022/09/17 04:04:04;;;;;;;2.33;0.90;;;;;;;9.70;100.00;96372.66;5028112;28;20041;-65
2022/09/17 04:06:29;;;;;;;2.83;0.60;;;;;;;9.60;100.00;96369.75;5023257;28;20045;-68
2022/09/17 04:08:55;;;;;;;4.68;1.08;;;;;;;9.53;100.00;96370.47;5020931;28;20038;-67
2022/09/17 04:11:21;;;;;;;2.10;1.42;;;;;;;9.46;100.00;96368.41;5013460;28;20056;-67
2022/09/17 04:13:47;;;;;;;3.45;0.98;;;;;;;9.47;100.00;96375.47;5022058;28;20049;-66
2022/09/17 04:16:13;;;;;;;3.70;0.80;;;;;;;9.53;100.00;96375.94;5017371;28;20072;-69
2022/09/17 04:18:39;;;;;;;4.15;1.45;;;;;;;9.52;100.00;96374.34;5031687;28;20128;-67
2022/09/17 04:21:05;;;;;;;1.90;0.90;;;;;;;9.56;100.00;96376.00;5023446;28;20046;-69
2022/09/17 04:23:31;;;;;;;2.33;0.90;;;;;;;9.54;100.00;96374.75;5041230;28;20081;-68
2022/09/17 04:25:57;;;;;;;2.58;0.98;;;;;;;9.48;100.00;96370.78;5028784;28;20064;-69
2022/09/17 04:28:22;;;;;;;6.93;0.80;;;;;;;9.46;100.00;96379.34;5018880;28;20465;-68
2022/09/17 04:30:48;;;;;;;1.25;0.70;;;;;;;9.43;100.00;96379.28;5025627;28;20102;-68
2022/09/17 04:33:14;;;;;;;1.90;0.73;;;;;;;9.52;100.00;96383.31;5023021;28;20037;-69
2022/09/17 04:35:39;;;;;;;1.50;0.73;;;;;;;9.57;100.00;96390.44;5022482;28;21830;-69
2022/09/17 04:38:05;;;;;;;3.78;1.25;;;;;;;9.47;100.00;96391.88;5019935;28;20049;-66
2022/09/17 04:40:30;;;;;;;2.58;0.90;;;;;;;9.51;100.00;96386.44;5025575;28;20045;-69
2022/09/17 04:43:02;;;;;;;1.80;0.80;;;;;;;9.54;100.00;96394.72;5021347;28;20057;-67
2022/09/17 04:45:29;;;;;;;3.42;1.42;;;;;;;9.60;100.00;96403.38;5000807;28;20848;-69
2022/09/17 04:47:55;;;;;;;5.35;0.90;;;;;;;9.59;100.00;96399.06;5023388;28;20475;-66
2022/09/17 04:50:21;;;;;;;3.47;0.90;;;;;;;9.59;100.00;96398.28;5027235;28;20117;-65
2022/09/17 04:52:47;;;;;;;2.58;0.80;;;;;;;9.58;100.00;96400.22;5052898;28;20051;-67
2022/09/17 04:55:14;;;;;;;4.00;0.90;;;;;;;9.57;100.00;96402.16;5037844;28;20478;-67
2022/09/17 04:57:48;;;;;;;3.03;1.00;;;;;;;9.55;100.00;96404.47;5033717;28;20045;-66
2022/09/17 05:00:14;;;;;;;1.85;0.70;;;;;;;9.54;100.00;96411.13;5024844;28;20116;-68
2022/09/17 05:02:42;;;;;;;3.10;1.10;;;;;;;9.58;100.00;96408.44;5030486;28;20613;-68
2022/09/17 05:05:07;;;;;;;2.63;0.90;;;;;;;9.55;100.00;96420.09;5017249;28;20042;-68
2022/09/17 05:07:33;;;;;;;0.90;0.73;;;;;;;9.61;100.00;96426.81;5030003;28;20048;-68
2022/09/17 05:09:59;;;;;;;5.22;1.13;;;;;;;9.58;100.00;96422.09;5023508;28;20041;-68
2022/09/17 05:12:24;;;;;;;5.03;0.85;;;;;;;9.53;100.00;96416.94;5012930;28;20046;-67
2022/09/17 05:14:49;;;;;;;1.30;0.75;;;;;;;9.54;100.00;96416.59;5032128;28;20087;-68
2022/09/17 05:17:15;;;;;;;2.38;0.70;;;;;;;9.50;100.00;96421.19;5032564;28;20048;-66
2022/09/17 05:19:40;;;;;;;1.15;0.70;;;;;;;9.49;100.00;96425.09;5024078;28;20038;-68
2022/09/17 05:22:06;;;;;;;1.88;0.77;;;;;;;9.56;100.00;96432.59;5025845;28;20045;-67
2022/09/17 05:24:32;;;;;;;4.32;0.85;;;;;;;9.63;100.00;96429.97;5018279;28;20052;-68
2022/09/17 05:26:57;;;;;;;4.53;0.85;;;;;;;9.76;100.00;96430.59;5019982;28;20045;-69
2022/09/17 05:29:23;;;;;;;3.30;0.90;;;;;;;9.71;100.00;96433.63;5017799;28;20551;-68
2022/09/17 05:31:48;;;;;;;3.95;0.95;;;;;;;9.71;100.00;96431.69;5020084;28;20038;-69
2022/09/17 05:34:13;;;;;;;2.60;1.20;;;;;;;9.69;100.00;96423.06;5018241;28;20045;-68
2022/09/17 05:36:39;;;;;;;3.03;1.00;;;;;;;9.76;100.00;96427.84;5020701;28;20050;-68
2022/09/17 05:39:04;;;;;;;2.38;1.05;;;;;;;9.63;100.00;96438.19;5029815;28;20131;-66
2022/09/17 05:41:30;;;;;;;4.03;0.85;;;;;;;9.59;100.00;96431.09;5023327;28;20470;-69
2022/09/17 05:43:55;;;;;;;2.05;0.70;;;;;;;9.50;100.00;96425.88;5039658;28;20217;-68
2022/09/17 05:46:21;;;;;;;2.42;0.80;;;;;;;9.26;100.00;96427.06;5015539;28;20073;-68
2022/09/17 05:48:46;;;;;;;2.88;0.82;;;;;;;9.12;100.00;96441.25;5040243;28;20075;-67
2022/09/17 05:51:12;;;;;;;3.88;0.77;;;;;;;9.12;100.00;96439.28;5020158;28;20065;-68
2022/09/17 05:53:37;;;;;;;3.83;1.05;;;;;;;9.12;100.00;96442.03;5020000;28;20045;-67
2022/09/17 05:56:03;;;;;;;2.08;0.70;;;;;;;9.12;100.00;96438.50;5024496;28;20406;-67
2022/09/17 05:58:28;;;;;;;1.15;1.05;;;;;;;9.07;100.00;96447.00;5020125;28;20041;-67
2022/09/17 06:00:53;;;;;;;2.35;0.90;;;;;;;9.06;100.00;96450.91;5021573;28;20072;-68
2022/09/17 06:03:21;;;;;;;1.48;0.63;;;;;;;9.25;100.00;96458.25;5014658;28;20049;-68
2022/09/17 06:05:56;;;;;;;1.90;0.90;;;;;;;9.37;100.00;96464.31;5023458;28;20041;-66
2022/09/17 06:08:23;;;;;;;3.40;0.98;;;;;;;9.57;100.00;96464.25;5020155;28;20268;-68
2022/09/17 06:10:49;;;;;;;1.25;0.80;;;;;;;9.85;100.00;96463.94;5023310;28;20406;-67
2022/09/17 06:13:19;;;;;;;2.60;0.93;;;;;;;10.22;100.00;96467.97;5024129;28;20051;-67
2022/09/17 06:15:53;;;;;;;1.42;0.70;;;;;;;10.19;100.00;96463.22;5020057;28;20526;-68
2022/09/17 06:18:19;;;;;;;2.42;0.73;;;;;;;10.25;100.00;96468.03;5013854;28;20056;-68
2022/09/17 06:20:58;;;;;;;3.00;0.80;;;;;;;10.25;100.00;96462.56;5023378;28;20045;-67
2022/09/17 06:23:24;;;;;;;1.15;0.60;;;;;;;10.39;100.00;96469.41;5024328;28;20529;-68
2022/09/17 06:25:55;;;;;;;2.53;0.50;;;;;;;10.38;100.00;96470.56;5020778;28;20617;-68
2022/09/17 06:28:21;;;;;;;2.63;1.67;;;;;;;10.33;100.00;96471.66;5014661;28;20470;-68
2022/09/17 06:30:47;;;;;;;4.70;1.48;;;;;;;10.26;100.00;96482.50;5021389;28;20045;-67
2022/09/17 06:33:13;;;;;;;2.50;1.17;;;;;;;10.40;100.00;96479.19;4996714;28;20037;-68
2022/09/17 06:35:38;;;;;;;3.55;1.17;;;;;;;10.37;100.00;96480.75;5031318;28;20371;-68
2022/09/17 06:38:05;;;;;;;4.22;0.95;;;;;;;10.47;100.00;96482.03;5027598;28;20498;-67
2022/09/17 06:40:30;;;;;;;5.25;1.50;;;;;;;10.36;100.00;96481.09;5003582;28;20037;-68
2022/09/17 06:42:58;;;;;;;1.85;0.80;;;;;;;10.02;100.00;96494.66;5018813;28;20116;-67
2022/09/17 06:45:27;;;;;;;4.65;1.95;;;;;;;10.09;100.00;96501.03;5019093;28;20900;-67
2022/09/17 06:47:52;;;;;;;7.57;0.90;;;;;;;9.99;100.00;96504.38;5023368;28;20168;-68
2022/09/17 06:50:18;;;;;;;3.70;0.90;;;;;;;10.11;100.00;96509.66;5022630;28;20128;-70
2022/09/17 06:52:52;;;;;;;4.55;0.90;;;;;;;10.20;100.00;96512.13;5019996;28;20442;-68
2022/09/17 06:55:17;;;;;;;6.82;1.33;;;;;;;10.02;100.00;96511.09;5015381;28;20046;-66
2022/09/17 06:57:43;;;;;;;10.40;1.92;;;;;;;10.04;100.00;96506.81;5033337;28;20051;-67
2022/09/17 07:00:10;;;;;;;4.70;1.60;;;;;;;10.20;100.00;96511.34;5020952;28;20064;-67
2022/09/17 07:02:36;;;;;;;3.50;1.17;;;;;;;10.25;100.00;96517.28;5009720;28;20037;-67
2022/09/17 07:05:01;;;;;;;5.00;1.20;;;;;;;10.51;100.00;96522.00;5017232;28;20044;-69
2022/09/17 07:07:27;;;;;;;9.00;1.17;;;;;;;10.66;100.00;96522.97;5003334;28;20677;-66
2022/09/17 07:09:53;;;;;;;3.53;0.90;;;;;;;10.55;100.00;96522.03;5025661;28;20100;-68
2022/09/17 07:12:19;;;;;;;2.20;0.90;;;;;;;10.41;100.00;96522.63;5015090;28;20045;-68
2022/09/17 07:14:46;;;;;;;3.58;0.70;;;;;;;10.53;100.00;96527.09;5017794;28;20407;-67
2022/09/17 07:17:12;;;;;;;2.67;0.80;;;;;;;10.27;100.00;96531.41;4996955;28;20490;-68
2022/09/17 07:19:38;;;;;;;5.65;1.00;;;;;;;10.43;100.00;96528.53;5017403;28;20057;-68
2022/09/17 07:22:03;;;;;;;4.05;0.80;;;;;;;10.57;100.00;96532.63;5016268;28;20048;-67
2022/09/17 07:24:29;;;;;;;3.60;0.75;;;;;;;10.61;100.00;96541.69;5024218;28;20123;-68
2022/09/17 07:26:54;;;;;;;0.95;0.60;;;;;;;10.51;100.00;96545.84;5014092;28;20080;-68
2022/09/17 07:29:22;;;;;;;1.67;0.70;;;;;;;10.37;100.00;96543.72;5021006;28;20064;-68
2022/09/17 07:31:48;;;;;;;4.03;0.75;;;;;;;10.51;100.00;96551.31;5027449;28;20041;-66
2022/09/17 07:34:13;;;;;;;4.60;1.17;;;;;;;10.84;100.00;96552.53;5013396;28;20134;-68
2022/09/17 07:36:39;;;;;;;4.05;0.90;;;;;;;11.07;100.00;96552.44;5018370;28;20030;-68
2022/09/17 07:39:05;;;;;;;1.20;0.60;;;;;;;11.02;100.00;96537.13;4997267;28;20041;-69
2022/09/17 07:41:31;;;;;;;1.23;0.52;;;;;;;11.21;100.00;96540.84;4998933;28;20045;-68
2022/09/17 07:43:57;;;;;;;2.00;0.57;;;;;;;12.34;100.00;96527.78;5012417;28;20046;-68
2022/09/17 07:46:22;;;;;;;5.47;2.35;;;;;;;12.89;100.00;96535.94;5015137;28;20057;-68
2022/09/17 07:48:48;;;;;;;1.20;0.52;;;;;;;14.85;87.27;96528.25;5020144;28;20091;-68
2022/09/17 07:51:23;;;;;;;7.40;1.77;;;;;;;15.39;83.86;96527.25;5013054;28;20042;-67
2022/09/17 07:53:53;;;;;;;3.33;0.50;;;;;;;15.13;84.00;96532.09;5008429;28;20098;-68
2022/09/17 07:56:20;;;;;;;3.17;0.50;;;;;;;16.05;79.37;96541.03;4994494;28;20053;-67
2022/09/17 07:58:45;;;;;;;2.95;0.90;;;;;;;15.57;80.72;96530.69;5001397;28;20071;-67
2022/09/17 08:01:14;;;;;;;5.30;0.60;;;;;;;16.75;76.86;96540.00;4981562;28;20038;-68
2022/09/17 08:03:39;;;;;;;4.90;0.93;;;;;;;17.33;71.34;96537.38;5022434;28;20041;-68
2022/09/17 08:06:10;;;;;;;1.92;0.52;;;;;;;18.15;68.28;96549.31;5018596;28;20041;-68
2022/09/17 08:08:37;;;;;;;4.20;0.60;;;;;;;18.59;57.21;96541.03;5029446;28;20085;-68
2022/09/17 08:11:05;;;;;;;2.38;0.32;;;;;;;16.76;62.54;96541.59;5028161;28;20065;-69
2022/09/17 08:13:31;;;;;;;2.92;0.68;;;;;;;17.38;60.07;96541.69;5020773;28;20052;-69
2022/09/17 08:16:02;;;;;;;6.03;0.85;;;;;;;16.53;60.12;96533.94;5023898;28;20114;-69
2022/09/17 08:18:28;;;;;;;3.17;0.50;;;;;;;15.84;63.68;96530.16;4994962;28;20033;-68
2022/09/17 08:20:59;;;;;;;4.18;0.77;;;;;;;15.65;65.27;96542.50;4984992;28;20068;-69
2022/09/17 08:23:26;;;;;;;1.95;0.60;;;;;;;15.39;65.85;96541.81;5015343;28;20049;-69
2022/09/17 08:25:53;;;;;;;4.03;0.70;;;;;;;15.22;66.09;96545.47;5023291;28;20041;-69
2022/09/17 08:28:19;;;;;;;3.33;0.70;;;;;;;14.23;70.81;96548.81;5016643;28;20055;-69
2022/09/17 08:30:45;;;;;;;2.22;0.57;;;;;;;14.36;73.99;96551.97;5005202;28;20487;-68
2022/09/17 08:33:10;;;;;;;2.85;0.60;;;;;;;13.75;72.70;96544.47;4997390;28;20041;-68
2022/09/17 08:35:36;;;;;;;7.13;0.88;;;;;;;13.67;73.05;96547.63;5022244;28;20037;-67
2022/09/17 08:38:01;;;;;;;3.40;0.60;;;;;;;13.24;77.69;96544.72;5018482;28;20050;-67
2022/09/17 08:40:27;;;;;;;1.70;0.50;;;;;;;13.97;71.25;96544.47;5013593;28;20057;-67
2022/09/17 08:43:01;;;;;;;0.98;0.50;;;;;;;14.59;68.70;96548.03;5017178;28;20103;-68
2022/09/17 08:45:27;;;;;;;8.25;0.85;;;;;;;15.55;63.54;96540.56;5012329;28;20889;-67
2022/09/17 08:48:00;;;;;;;3.75;0.70;;;;;;;17.48;57.43;96532.44;5022096;28;20111;-68
2022/09/17 08:50:27;;;;;;;2.67;0.60;;;;;;;16.23;59.01;96529.84;5016488;28;20045;-68
2022/09/17 08:53:00;;;;;;;2.95;0.50;;;;;;;15.68;60.14;96525.91;5022430;28;20069;-68
2022/09/17 08:55:35;;;;;;;5.32;1.02;;;;;;;15.28;64.67;96532.81;5019324;28;20045;-67
2022/09/17 08:58:19;;;;;;;4.10;1.33;;;;;;;16.38;61.98;96543.53;5025137;28;20543;-68
2022/09/17 09:01:09;;;;;;;3.17;0.75;;;;;;;17.17;58.22;96543.50;5020689;28;20040;-68
2022/09/17 09:03:58;;;;;;;3.85;0.60;;;;;;;16.65;60.34;96540.91;5020814;28;20044;-67
2022/09/17 09:06:28;;;;;;;1.08;0.40;;;;;;;15.18;62.67;96539.97;5020923;28;20744;-67
2022/09/17 09:08:58;;;;;;;5.05;0.90;;;;;;;14.15;67.06;96542.53;5025059;28;20038;-67
2022/09/17 09:11:26;;;;;;;2.90;0.82;;;;;;;14.34;67.61;96543.31;5016814;28;20700;-68
2022/09/17 09:14:20;;;;;;;4.75;1.38;;;;;;;14.93;64.03;96542.00;5023215;28;20034;-68
2022/09/17 09:16:47;;;;;;;2.78;0.85;;;;;;;16.09;61.70;96535.50;5016745;28;20349;-69
2022/09/17 09:19:29;;;;;;;1.30;0.55;;;;;;;16.65;58.25;96540.13;5011713;28;20041;-69
2022/09/17 09:22:21;;;;;;;1.88;0.70;;;;;;;16.76;58.80;96538.03;5014277;28;20048;-69
2022/09/17 09:25:25;;;;;;;4.30;1.50;;;;;;;16.32;58.29;96542.41;5022795;28;20423;-70
2022/09/17 09:28:41;;;;;;;1.45;0.60;;;;;;;14.96;63.86;96543.97;4998257;28;20498;-68
2022/09/17 09:31:15;;;;;;;1.77;0.68;;;;;;;16.14;59.12;96546.09;4957800;28;20082;-69
2022/09/17 09:33:44;;;;;;;3.88;0.73;;;;;;;16.96;57.92;96541.00;5016019;28;20160;-68
2022/09/17 09:36:13;;;;;;;2.13;0.55;;;;;;;17.89;56.39;96534.25;5040578;28;20041;-67
2022/09/17 09:39:01;;;;;;;2.08;0.50;;;;;;;17.66;54.37;96539.72;5037369;28;20156;-67
2022/09/17 09:41:39;;;;;;;3.33;0.52;;;;;;;16.40;58.34;96527.31;4988850;28;20490;-69
2022/09/17 09:44:09;;;;;;;4.05;0.77;;;;;;;15.62;58.65;96533.03;5019536;28;20048;-67
2022/09/17 09:46:44;;;;;;;3.55;0.60;;;;;;;14.73;63.16;96548.00;5021295;28;20056;-69
2022/09/17 09:49:37;;;;;;;1.75;0.60;;;;;;;14.45;62.63;96544.06;5023046;28;20045;-69
2022/09/17 09:52:05;;;;;;;3.92;0.88;;;;;;;14.43;64.17;96553.94;5022596;28;20034;-69
2022/09/17 09:54:51;;;;;;;1.90;0.60;;;;;;;14.17;67.71;96560.63;5021868;28;20116;-71
2022/09/17 09:57:41;;;;;;;5.20;2.80;;;;;;;13.82;71.14;96556.69;5011555;28;20041;-68
2022/09/17 10:00:41;;;;;;;2.10;0.60;;;;;;;14.45;68.59;96549.59;4993779;28;20093;-69
2022/09/17 10:03:19;;;;;;;2.83;0.60;;;;;;;14.11;70.89;96560.22;4993849;28;20100;-69
2022/09/17 10:05:59;;;;;;;3.72;0.90;;;;;;;13.82;71.22;96553.94;5012707;28;20099;-69
2022/09/17 10:08:27;;;;;;;1.80;0.50;;;;;;;13.92;70.71;96551.19;5014128;28;20041;-68
2022/09/17 10:11:12;;;;;;;0.95;0.50;;;;;;;14.26;71.49;96561.81;5014888;28;20076;-68
2022/09/17 10:13:39;;;;;;;2.55;0.70;;;;;;;15.51;67.26;96551.63;5024491;28;20509;-68
2022/09/17 10:16:23;;;;;;;4.35;0.85;;;;;;;15.91;61.17;96554.97;5021301;28;20029;-68
2022/09/17 10:19:09;;;;;;;2.60;0.60;;;;;;;15.17;61.83;96554.94;5028980;28;20052;-68
2022/09/17 10:21:38;;;;;;;1.40;0.50;;;;;;;15.15;61.67;96559.28;5020082;28;20131;-67
2022/09/17 10:24:16;;;;;;;5.43;0.70;;;;;;;15.22;62.28;96554.53;5026276;28;20045;-64
2022/09/17 10:26:42;;;;;;;3.35;0.75;;;;;;;15.37;61.65;96562.75;5030614;28;20383;-69
2022/09/17 10:29:15;;;;;;;5.40;1.70;;;;;;;15.09;63.28;96556.16;5025020;28;20033;-68
2022/09/17 10:31:47;;;;;;;3.78;0.90;;;;;;;15.52;61.90;96550.44;5029186;28;20390;-69
2022/09/17 10:34:32;;;;;;;3.63;1.02;;;;;;;15.12;61.67;96549.84;5022795;28;20107;-68
2022/09/17 10:36:58;;;;;;;2.35;0.95;;;;;;;14.47;65.37;96555.47;5026872;28;20045;-67
2022/09/17 10:39:26;;;;;;;4.05;0.90;;;;;;;14.28;66.50;96547.66;5017420;28;20454;-68
2022/09/17 10:42:02;;;;;;;1.50;0.73;;;;;;;14.63;64.67;96563.38;5026304;28;20038;-67
2022/09/17 10:44:33;;;;;;;2.67;0.80;;;;;;;14.37;75.45;96552.75;5018640;28;20511;-67
2022/09/17 10:47:14;;;;;;;2.13;0.65;;;;;;;13.77;89.64;96563.34;5020778;28;20049;-68
2022/09/17 10:49:55;;;;;;;2.45;0.60;;;;;;;13.07;100.00;96559.97;5017135;28;20196;-68
2022/09/17 10:52:31;;;;;;;5.50;1.02;;;;;;;12.65;100.00;96558.59;5013281;28;20069;-68
2022/09/17 10:55:08;;;;;;;3.15;0.90;;;;;;;12.39;100.00;96565.88;5016099;28;20060;-68
2022/09/17 10:57:44;;;;;;;1.55;0.80;;;;;;;12.86;100.00;96560.66;5021702;28;20065;-68
2022/09/17 11:00:17;;;;;;;2.75;0.80;;;;;;;13.41;100.00;96570.72;5013451;28;20037;-67
2022/09/17 11:03:04;;;;;;;3.10;0.93;;;;;;;13.28;100.00;96570.28;5016393;28;20062;-68
2022/09/17 11:05:44;;;;;;;2.25;0.85;;;;;;;13.62;98.10;96561.75;5013712;28;20046;-68
2022/09/17 11:08:33;;;;;;;4.45;1.13;;;;;;;13.51;97.82;96556.22;5013771;28;20049;-68
2022/09/17 11:11:25;;;;;;;3.15;0.70;;;;;;;13.30;98.14;96571.44;5025915;28;20036;-67
2022/09/17 11:14:04;;;;;;;1.70;0.80;;;;;;;13.11;100.00;96571.78;5031465;28;20057;-68
2022/09/17 11:16:32;;;;;;;4.15;1.23;;;;;;;13.16;100.00;96574.94;5029308;28;20055;-68
2022/09/17 11:19:21;;;;;;;3.28;0.80;;;;;;;13.19;100.00;96578.88;5012912;28;20041;-68
2022/09/17 11:22:10;;;;;;;4.53;1.13;;;;;;;12.72;100.00;96580.59;5030332;28;20437;-67
2022/09/17 11:25:04;;;;;;;8.02;1.25;;;;;;;12.45;100.00;96594.56;5023248;28;20044;-67
2022/09/17 11:27:51;;;;;;;2.65;1.05;;;;;;;11.59;100.00;96599.25;5019528;28;20480;-67
2022/09/17 11:30:22;;;;;;;2.38;0.80;;;;;;;11.72;100.00;96591.53;4995711;28;20092;-67
2022/09/17 11:33:08;;;;;;;2.95;0.88;;;;;;;11.42;100.00;96584.97;5008882;28;20037;-67
2022/09/17 11:35:44;;;;;;;1.08;0.70;;;;;;;11.44;100.00;96587.34;4998362;28;20060;-69
2022/09/17 11:38:18;;;;;;;1.75;0.85;;;;;;;11.68;100.00;96583.28;5029581;28;20035;-70
2022/09/17 11:40:49;;;;;;;3.85;1.02;;;;;;;11.53;100.00;96581.56;5039511;28;20041;-67
2022/09/17 11:43:26;;;;;;;1.42;0.80;;;;;;;11.34;100.00;96580.56;5028527;28;20418;-66
2022/09/17 11:46:14;;;;;;;3.13;1.10;;;;;;;11.25;100.00;96589.09;5017434;28;20045;-69
2022/09/17 11:48:50;;;;;;;1.75;0.90;;;;;;;11.14;100.00;96587.38;5025184;28;20049;-69
2022/09/17 11:51:21;;;;;;;3.55;1.63;;;;;;;11.60;100.00;96590.63;5047972;28;20175;-69
2022/09/17 11:53:56;;;;;;;1.75;1.00;;;;;;;11.82;100.00;96594.38;5027939;28;20055;-70